sensor_id;sensor_type;location;lat;lon;timestamp;temperature;humidity
56771;DHT22;42641;59.794;17.616;2022-07-29T00:01:49;11.30;99.90
56771;DHT22;42641;59.794;17.616;2022-07-29T00:04:15;11.30;99.90
56771;DHT22;42641;59.794;17.616;2022-07-29T00:06:41;11.30;99.90
56771;DHT22;42641;59.794;17.616;2022-07-29T00:09:08;11.30;99.90
56771;DHT22;42641;59.794;17.616;2022-07-29T00:11:34;11.20;99.90
56771;DHT22;42641;59.794;17.616;2022-07-29T00:14:01;11.20;99.90
56771;DHT22;42641;59.794;17.616;2022-07-29T00:16:27;11.20;99.90
56771;DHT22;42641;59.794;17.616;2022-07-29T00:18:54;11.20;99.90
56771;DHT22;42641;59.794;17.616;2022-07-29T00:21:20;11.10;99.90
56771;DHT22;42641;59.794;17.616;2022-07-29T00:23:47;11.10;99.90
56771;DHT22;42641;59.794;17.616;2022-07-29T00:26:13;11.10;99.90
56771;DHT22;42641;59.794;17.616;2022-07-29T00:28:39;11.10;99.90
56771;DHT22;42641;59.794;17.616;2022-07-29T00:31:06;11.00;99.90
56771;DHT22;42641;59.794;17.616;2022-07-29T00:33:32;11.00;99.90
56771;DHT22;42641;59.794;17.616;2022-07-29T00:35:58;11.00;99.90
56771;DHT22;42641;59.794;17.616;2022-07-29T00:38:25;11.00;99.90
56771;DHT22;42641;59.794;17.616;2022-07-29T00:40:51;10.90;99.90
56771;DHT22;42641;59.794;17.616;2022-07-29T00:43:18;10.90;99.90
56771;DHT22;42641;59.794;17.616;2022-07-29T00:45:45;10.80;99.90
56771;DHT22;42641;59.794;17.616;2022-07-29T00:48:11;10.80;99.90
56771;DHT22;42641;59.794;17.616;2022-07-29T00:50:38;10.80;99.90
56771;DHT22;42641;59.794;17.616;2022-07-29T00:53:06;10.70;99.90
56771;DHT22;42641;59.794;17.616;2022-07-29T00:55:33;10.70;99.90
56771;DHT22;42641;59.794;17.616;2022-07-29T00:58:00;10.70;99.90
56771;DHT22;42641;59.794;17.616;2022-07-29T01:00:28;10.70;99.90
56771;DHT22;42641;59.794;17.616;2022-07-29T01:02:54;10.60;99.90
56771;DHT22;42641;59.794;17.616;2022-07-29T01:05:23;10.60;99.90
56771;DHT22;42641;59.794;17.616;2022-07-29T01:07:52;10.60;99.90
56771;DHT22;42641;59.794;17.616;2022-07-29T01:10:19;10.60;99.90
56771;DHT22;42641;59.794;17.616;2022-07-29T01:12:49;10.50;99.90
56771;DHT22;42641;59.794;17.616;2022-07-29T01:15:16;10.50;99.90
56771;DHT22;42641;59.794;17.616;2022-07-29T01:17:57;10.50;99.90
56771;DHT22;42641;59.794;17.616;2022-07-29T01:23:32;10.40;99.90
56771;DHT22;42641;59.794;17.616;2022-07-29T01:29:03;10.30;99.90
56771;DHT22;42641;59.794;17.616;2022-07-29T01:31:47;10.30;99.90
56771;DHT22;42641;59.794;17.616;2022-07-29T01:34:21;10.30;99.90
56771;DHT22;42641;59.794;17.616;2022-07-29T01:37:36;10.30;99.90
56771;DHT22;42641;59.794;17.616;2022-07-29T01:39:56;10.20;99.90
56771;DHT22;42641;59.794;17.616;2022-07-29T01:42:30;10.20;99.90
56771;DHT22;42641;59.794;17.616;2022-07-29T01:45:20;10.20;99.90
56771;DHT22;42641;59.794;17.616;2022-07-29T01:48:03;10.10;99.90
56771;DHT22;42641;59.794;17.616;2022-07-29T01:50:37;10.10;99.90
56771;DHT22;42641;59.794;17.616;2022-07-29T01:53:07;10.00;99.90
56771;DHT22;42641;59.794;17.616;2022-07-29T01:55:39;10.00;99.90
56771;DHT22;42641;59.794;17.616;2022-07-29T01:58:07;10.00;99.90
56771;DHT22;42641;59.794;17.616;2022-07-29T02:00:34;10.00;99.90
56771;DHT22;42641;59.794;17.616;2022-07-29T02:03:11;10.00;99.90
56771;DHT22;42641;59.794;17.616;2022-07-29T02:05:39;10.00;99.90
56771;DHT22;42641;59.794;17.616;2022-07-29T02:08:07;9.90;99.90
56771;DHT22;42641;59.794;17.616;2022-07-29T02:10:35;9.90;99.90
56771;DHT22;42641;59.794;17.616;2022-07-29T02:13:02;9.90;99.90
56771;DHT22;42641;59.794;17.616;2022-07-29T02:15:31;9.80;99.90
56771;DHT22;42641;59.794;17.616;2022-07-29T02:18:02;9.70;99.90
56771;DHT22;42641;59.794;17.616;2022-07-29T02:20:31;9.70;99.90
56771;DHT22;42641;59.794;17.616;2022-07-29T02:22:59;9.70;99.90
56771;DHT22;42641;59.794;17.616;2022-07-29T02:25:26;9.70;99.90
56771;DHT22;42641;59.794;17.616;2022-07-29T02:27:54;9.60;99.90
56771;DHT22;42641;59.794;17.616;2022-07-29T02:30:22;9.60;99.90
56771;DHT22;42641;59.794;17.616;2022-07-29T02:32:51;9.50;99.90
56771;DHT22;42641;59.794;17.616;2022-07-29T02:35:18;9.50;99.90
56771;DHT22;42641;59.794;17.616;2022-07-29T02:37:46;9.50;99.90
56771;DHT22;42641;59.794;17.616;2022-07-29T02:40:34;9.50;99.90
56771;DHT22;42641;59.794;17.616;2022-07-29T02:43:03;9.50;99.90
56771;DHT22;42641;59.794;17.616;2022-07-29T02:45:33;9.50;99.90
56771;DHT22;42641;59.794;17.616;2022-07-29T02:48:05;9.50;99.90
56771;DHT22;42641;59.794;17.616;2022-07-29T02:50:36;9.50;99.90
56771;DHT22;42641;59.794;17.616;2022-07-29T02:53:13;9.50;99.90
56771;DHT22;42641;59.794;17.616;2022-07-29T02:55:44;9.60;99.90
56771;DHT22;42641;59.794;17.616;2022-07-29T02:58:31;9.50;99.90
56771;DHT22;42641;59.794;17.616;2022-07-29T03:01:03;9.50;99.90
56771;DHT22;42641;59.794;17.616;2022-07-29T03:03:33;9.50;99.90
56771;DHT22;42641;59.794;17.616;2022-07-29T03:06:01;9.50;99.90
56771;DHT22;42641;59.794;17.616;2022-07-29T03:08:29;9.50;99.90
56771;DHT22;42641;59.794;17.616;2022-07-29T03:10:57;9.50;99.90
56771;DHT22;42641;59.794;17.616;2022-07-29T03:13:25;9.50;99.90
56771;DHT22;42641;59.794;17.616;2022-07-29T03:15:52;9.50;99.90
56771;DHT22;42641;59.794;17.616;2022-07-29T03:18:19;9.50;99.90
56771;DHT22;42641;59.794;17.616;2022-07-29T03:20:46;9.50;99.90
56771;DHT22;42641;59.794;17.616;2022-07-29T03:23:21;9.40;99.90
56771;DHT22;42641;59.794;17.616;2022-07-29T03:25:49;9.50;99.90
56771;DHT22;42641;59.794;17.616;2022-07-29T03:28:16;9.40;99.90
56771;DHT22;42641;59.794;17.616;2022-07-29T03:30:42;9.40;99.90
56771;DHT22;42641;59.794;17.616;2022-07-29T03:33:09;9.40;99.90
56771;DHT22;42641;59.794;17.616;2022-07-29T03:35:35;9.40;99.90
56771;DHT22;42641;59.794;17.616;2022-07-29T03:38:02;9.50;99.90
56771;DHT22;42641;59.794;17.616;2022-07-29T03:40:38;9.60;99.90
56771;DHT22;42641;59.794;17.616;2022-07-29T03:43:08;9.60;99.90
56771;DHT22;42641;59.794;17.616;2022-07-29T03:45:36;9.70;99.90
56771;DHT22;42641;59.794;17.616;2022-07-29T03:48:08;9.70;99.90
56771;DHT22;42641;59.794;17.616;2022-07-29T03:50:36;9.70;99.90
56771;DHT22;42641;59.794;17.616;2022-07-29T03:53:03;9.80;99.90
56771;DHT22;42641;59.794;17.616;2022-07-29T03:55:32;9.80;99.90
56771;DHT22;42641;59.794;17.616;2022-07-29T03:57:59;9.80;99.90
56771;DHT22;42641;59.794;17.616;2022-07-29T04:00:27;9.90;99.90
56771;DHT22;42641;59.794;17.616;2022-07-29T04:02:54;9.90;99.90
56771;DHT22;42641;59.794;17.616;2022-07-29T04:05:20;10.00;99.90
56771;DHT22;42641;59.794;17.616;2022-07-29T04:07:48;10.00;99.90
56771;DHT22;42641;59.794;17.616;2022-07-29T04:10:15;10.10;99.90
56771;DHT22;42641;59.794;17.616;2022-07-29T04:12:43;10.20;99.90
56771;DHT22;42641;59.794;17.616;2022-07-29T04:15:10;10.40;99.90
56771;DHT22;42641;59.794;17.616;2022-07-29T04:17:37;10.50;99.90
56771;DHT22;42641;59.794;17.616;2022-07-29T04:20:04;10.60;99.90
56771;DHT22;42641;59.794;17.616;2022-07-29T04:22:31;10.70;99.90
56771;DHT22;42641;59.794;17.616;2022-07-29T04:24:57;10.80;99.90
56771;DHT22;42641;59.794;17.616;2022-07-29T04:27:23;10.90;99.90
56771;DHT22;42641;59.794;17.616;2022-07-29T04:29:50;11.10;99.90
56771;DHT22;42641;59.794;17.616;2022-07-29T04:32:16;11.10;99.90
56771;DHT22;42641;59.794;17.616;2022-07-29T04:34:42;11.30;99.90
56771;DHT22;42641;59.794;17.616;2022-07-29T04:37:09;11.50;99.90
56771;DHT22;42641;59.794;17.616;2022-07-29T04:39:35;11.60;99.90
56771;DHT22;42641;59.794;17.616;2022-07-29T04:42:01;11.70;99.90
56771;DHT22;42641;59.794;17.616;2022-07-29T04:44:28;11.90;99.90
56771;DHT22;42641;59.794;17.616;2022-07-29T04:46:55;12.10;99.90
56771;DHT22;42641;59.794;17.616;2022-07-29T04:49:21;12.30;99.90
56771;DHT22;42641;59.794;17.616;2022-07-29T04:51:48;12.40;99.90
56771;DHT22;42641;59.794;17.616;2022-07-29T04:54:14;12.60;99.90
56771;DHT22;42641;59.794;17.616;2022-07-29T04:56:40;12.70;99.90
56771;DHT22;42641;59.794;17.616;2022-07-29T04:59:07;12.80;99.90
56771;DHT22;42641;59.794;17.616;2022-07-29T05:01:34;13.00;99.90
56771;DHT22;42641;59.794;17.616;2022-07-29T05:04:00;13.10;99.90
56771;DHT22;42641;59.794;17.616;2022-07-29T05:06:27;13.30;99.90
56771;DHT22;42641;59.794;17.616;2022-07-29T05:08:53;13.40;99.90
56771;DHT22;42641;59.794;17.616;2022-07-29T05:11:19;13.60;99.90
56771;DHT22;42641;59.794;17.616;2022-07-29T05:13:46;13.80;99.90
56771;DHT22;42641;59.794;17.616;2022-07-29T05:16:13;13.90;99.90
56771;DHT22;42641;59.794;17.616;2022-07-29T05:18:39;14.10;99.90
56771;DHT22;42641;59.794;17.616;2022-07-29T05:21:05;14.30;99.90
56771;DHT22;42641;59.794;17.616;2022-07-29T05:23:32;14.40;99.90
56771;DHT22;42641;59.794;17.616;2022-07-29T05:25:58;14.60;99.90
56771;DHT22;42641;59.794;17.616;2022-07-29T05:28:25;14.70;99.90
56771;DHT22;42641;59.794;17.616;2022-07-29T05:30:51;14.90;99.90
56771;DHT22;42641;59.794;17.616;2022-07-29T05:33:17;15.00;99.90
56771;DHT22;42641;59.794;17.616;2022-07-29T05:35:44;15.10;99.90
56771;DHT22;42641;59.794;17.616;2022-07-29T05:38:10;15.30;99.90
56771;DHT22;42641;59.794;17.616;2022-07-29T05:40:36;15.40;99.90
56771;DHT22;42641;59.794;17.616;2022-07-29T05:43:02;15.50;99.90
56771;DHT22;42641;59.794;17.616;2022-07-29T05:45:29;15.60;99.90
56771;DHT22;42641;59.794;17.616;2022-07-29T05:47:55;15.70;99.90
56771;DHT22;42641;59.794;17.616;2022-07-29T05:50:23;15.90;99.90
56771;DHT22;42641;59.794;17.616;2022-07-29T05:52:49;16.00;99.90
56771;DHT22;42641;59.794;17.616;2022-07-29T05:55:16;16.10;99.90
56771;DHT22;42641;59.794;17.616;2022-07-29T05:57:42;16.20;99.90
56771;DHT22;42641;59.794;17.616;2022-07-29T06:00:11;16.30;99.90
56771;DHT22;42641;59.794;17.616;2022-07-29T06:02:40;16.40;99.90
56771;DHT22;42641;59.794;17.616;2022-07-29T06:05:07;16.60;99.90
56771;DHT22;42641;59.794;17.616;2022-07-29T06:07:33;16.70;99.90
56771;DHT22;42641;59.794;17.616;2022-07-29T06:10:00;16.80;99.90
56771;DHT22;42641;59.794;17.616;2022-07-29T06:12:26;17.00;99.90
56771;DHT22;42641;59.794;17.616;2022-07-29T06:14:52;17.10;99.90
56771;DHT22;42641;59.794;17.616;2022-07-29T06:17:19;17.20;99.90
56771;DHT22;42641;59.794;17.616;2022-07-29T06:19:45;17.30;99.90
56771;DHT22;42641;59.794;17.616;2022-07-29T06:22:12;17.40;99.90
56771;DHT22;42641;59.794;17.616;2022-07-29T06:24:40;17.50;99.90
56771;DHT22;42641;59.794;17.616;2022-07-29T06:27:10;17.50;99.90
56771;DHT22;42641;59.794;17.616;2022-07-29T06:29:37;17.60;99.90
56771;DHT22;42641;59.794;17.616;2022-07-29T06:32:04;17.60;99.90
56771;DHT22;42641;59.794;17.616;2022-07-29T06:34:30;17.70;99.90
56771;DHT22;42641;59.794;17.616;2022-07-29T06:36:57;17.80;99.90
56771;DHT22;42641;59.794;17.616;2022-07-29T06:39:23;17.90;99.90
56771;DHT22;42641;59.794;17.616;2022-07-29T06:41:50;18.10;99.90
56771;DHT22;42641;59.794;17.616;2022-07-29T06:44:17;18.20;99.90
56771;DHT22;42641;59.794;17.616;2022-07-29T06:46:44;18.30;99.90
56771;DHT22;42641;59.794;17.616;2022-07-29T06:49:10;18.40;99.90
56771;DHT22;42641;59.794;17.616;2022-07-29T06:51:38;18.50;99.90
56771;DHT22;42641;59.794;17.616;2022-07-29T06:54:04;18.60;99.90
56771;DHT22;42641;59.794;17.616;2022-07-29T06:56:33;18.70;99.90
56771;DHT22;42641;59.794;17.616;2022-07-29T06:59:01;18.90;99.90
56771;DHT22;42641;59.794;17.616;2022-07-29T07:01:29;18.90;99.90
56771;DHT22;42641;59.794;17.616;2022-07-29T07:03:55;19.00;99.90
56771;DHT22;42641;59.794;17.616;2022-07-29T07:06:22;19.00;99.90
56771;DHT22;42641;59.794;17.616;2022-07-29T07:08:49;19.20;99.90
56771;DHT22;42641;59.794;17.616;2022-07-29T07:11:15;19.30;99.90
56771;DHT22;42641;59.794;17.616;2022-07-29T07:13:42;19.30;99.90
56771;DHT22;42641;59.794;17.616;2022-07-29T07:16:08;19.50;99.90
56771;DHT22;42641;59.794;17.616;2022-07-29T07:18:34;19.50;99.90
56771;DHT22;42641;59.794;17.616;2022-07-29T07:21:01;19.60;99.00
56771;DHT22;42641;59.794;17.616;2022-07-29T07:23:27;19.60;99.90
56771;DHT22;42641;59.794;17.616;2022-07-29T07:25:54;19.80;99.90
56771;DHT22;42641;59.794;17.616;2022-07-29T07:28:20;20.00;99.90
56771;DHT22;42641;59.794;17.616;2022-07-29T07:30:46;20.00;98.60
56771;DHT22;42641;59.794;17.616;2022-07-29T07:33:13;20.00;97.90
56771;DHT22;42641;59.794;17.616;2022-07-29T07:35:41;20.00;97.60
56771;DHT22;42641;59.794;17.616;2022-07-29T07:38:07;20.00;97.80
56771;DHT22;42641;59.794;17.616;2022-07-29T07:40:34;19.90;98.20
56771;DHT22;42641;59.794;17.616;2022-07-29T07:43:01;20.00;97.30
56771;DHT22;42641;59.794;17.616;2022-07-29T07:45:27;20.10;98.00
56771;DHT22;42641;59.794;17.616;2022-07-29T07:47:54;20.20;98.00
56771;DHT22;42641;59.794;17.616;2022-07-29T07:50:20;20.40;98.10
56771;DHT22;42641;59.794;17.616;2022-07-29T07:52:52;20.50;98.90
56771;DHT22;42641;59.794;17.616;2022-07-29T07:55:19;20.40;97.00
56771;DHT22;42641;59.794;17.616;2022-07-29T07:57:46;20.50;96.90
56771;DHT22;42641;59.794;17.616;2022-07-29T08:00:14;20.60;97.20
56771;DHT22;42641;59.794;17.616;2022-07-29T08:02:41;20.70;99.20
56771;DHT22;42641;59.794;17.616;2022-07-29T08:05:09;20.80;97.70
56771;DHT22;42641;59.794;17.616;2022-07-29T08:07:36;20.80;97.80
56771;DHT22;42641;59.794;17.616;2022-07-29T08:10:03;20.90;97.70
56771;DHT22;42641;59.794;17.616;2022-07-29T08:12:30;21.10;96.80
56771;DHT22;42641;59.794;17.616;2022-07-29T08:14:56;21.20;97.50
56771;DHT22;42641;59.794;17.616;2022-07-29T08:17:23;21.30;96.50
56771;DHT22;42641;59.794;17.616;2022-07-29T08:19:49;21.30;95.90
56771;DHT22;42641;59.794;17.616;2022-07-29T08:22:16;21.40;95.20
56771;DHT22;42641;59.794;17.616;2022-07-29T08:24:42;21.50;95.90
56771;DHT22;42641;59.794;17.616;2022-07-29T08:27:13;21.60;94.20
56771;DHT22;42641;59.794;17.616;2022-07-29T08:29:39;21.60;97.30
56771;DHT22;42641;59.794;17.616;2022-07-29T08:32:06;21.70;96.00
56771;DHT22;42641;59.794;17.616;2022-07-29T08:34:32;21.90;96.30
56771;DHT22;42641;59.794;17.616;2022-07-29T08:36:59;21.90;94.40
56771;DHT22;42641;59.794;17.616;2022-07-29T08:39:25;21.80;96.40
56771;DHT22;42641;59.794;17.616;2022-07-29T08:41:52;22.00;95.90
56771;DHT22;42641;59.794;17.616;2022-07-29T08:44:19;22.00;94.30
56771;DHT22;42641;59.794;17.616;2022-07-29T08:46:45;22.00;95.70
56771;DHT22;42641;59.794;17.616;2022-07-29T08:49:12;22.10;94.00
56771;DHT22;42641;59.794;17.616;2022-07-29T08:51:43;22.10;95.50
56771;DHT22;42641;59.794;17.616;2022-07-29T08:54:10;22.10;94.70
56771;DHT22;42641;59.794;17.616;2022-07-29T08:56:38;22.20;94.00
56771;DHT22;42641;59.794;17.616;2022-07-29T08:59:05;22.40;92.40
56771;DHT22;42641;59.794;17.616;2022-07-29T09:01:33;22.40;93.80
56771;DHT22;42641;59.794;17.616;2022-07-29T09:04:01;22.60;93.40
56771;DHT22;42641;59.794;17.616;2022-07-29T09:06:31;22.60;91.30
56771;DHT22;42641;59.794;17.616;2022-07-29T09:08:59;22.70;90.40
56771;DHT22;42641;59.794;17.616;2022-07-29T09:11:27;22.70;90.30
56771;DHT22;42641;59.794;17.616;2022-07-29T09:13:54;22.80;90.80
56771;DHT22;42641;59.794;17.616;2022-07-29T09:16:20;22.90;90.50
56771;DHT22;42641;59.794;17.616;2022-07-29T09:18:47;23.10;87.90
56771;DHT22;42641;59.794;17.616;2022-07-29T09:21:15;23.10;89.40
56771;DHT22;42641;59.794;17.616;2022-07-29T09:24:12;23.20;90.80
56771;DHT22;42641;59.794;17.616;2022-07-29T09:26:41;23.20;85.50
56771;DHT22;42641;59.794;17.616;2022-07-29T09:29:13;23.20;89.70
56771;DHT22;42641;59.794;17.616;2022-07-29T09:31:43;23.40;88.60
56771;DHT22;42641;59.794;17.616;2022-07-29T09:34:10;23.40;87.40
56771;DHT22;42641;59.794;17.616;2022-07-29T09:36:45;23.50;87.20
56771;DHT22;42641;59.794;17.616;2022-07-29T09:39:13;23.60;86.70
56771;DHT22;42641;59.794;17.616;2022-07-29T09:41:48;23.80;91.80
56771;DHT22;42641;59.794;17.616;2022-07-29T09:44:16;24.10;90.60
56771;DHT22;42641;59.794;17.616;2022-07-29T09:47:04;24.20;85.60
56771;DHT22;42641;59.794;17.616;2022-07-29T09:49:36;24.40;84.40
56771;DHT22;42641;59.794;17.616;2022-07-29T09:52:15;24.50;83.50
56771;DHT22;42641;59.794;17.616;2022-07-29T09:54:42;24.70;81.80
56771;DHT22;42641;59.794;17.616;2022-07-29T09:57:20;24.80;82.30
56771;DHT22;42641;59.794;17.616;2022-07-29T09:59:57;24.80;80.60
56771;DHT22;42641;59.794;17.616;2022-07-29T10:02:28;24.80;85.20
56771;DHT22;42641;59.794;17.616;2022-07-29T10:04:55;24.80;86.70
56771;DHT22;42641;59.794;17.616;2022-07-29T10:07:22;25.20;87.20
56771;DHT22;42641;59.794;17.616;2022-07-29T10:09:53;25.10;85.00
56771;DHT22;42641;59.794;17.616;2022-07-29T10:12:21;25.00;84.70
56771;DHT22;42641;59.794;17.616;2022-07-29T10:14:49;25.00;86.00
56771;DHT22;42641;59.794;17.616;2022-07-29T10:17:16;25.30;83.30
56771;DHT22;42641;59.794;17.616;2022-07-29T10:19:43;25.20;82.50
56771;DHT22;42641;59.794;17.616;2022-07-29T10:22:10;25.00;83.60
56771;DHT22;42641;59.794;17.616;2022-07-29T10:24:38;25.40;86.70
56771;DHT22;42641;59.794;17.616;2022-07-29T10:27:06;25.80;83.50
56771;DHT22;42641;59.794;17.616;2022-07-29T10:29:33;25.40;83.20
56771;DHT22;42641;59.794;17.616;2022-07-29T10:37:28;25.30;85.80
56771;DHT22;42641;59.794;17.616;2022-07-29T10:40:36;25.20;82.00
56771;DHT22;42641;59.794;17.616;2022-07-29T10:43:33;25.30;83.40
56771;DHT22;42641;59.794;17.616;2022-07-29T10:46:02;25.20;81.80
56771;DHT22;42641;59.794;17.616;2022-07-29T10:48:29;25.10;80.70
56771;DHT22;42641;59.794;17.616;2022-07-29T10:51:01;24.90;83.10
56771;DHT22;42641;59.794;17.616;2022-07-29T10:53:50;25.40;82.70
56771;DHT22;42641;59.794;17.616;2022-07-29T11:01:57;26.10;81.50
56771;DHT22;42641;59.794;17.616;2022-07-29T11:07:10;26.30;80.00
56771;DHT22;42641;59.794;17.616;2022-07-29T11:09:38;26.50;79.60
56771;DHT22;42641;59.794;17.616;2022-07-29T11:13:06;27.10;79.70
56771;DHT22;42641;59.794;17.616;2022-07-29T11:15:15;27.60;76.20
56771;DHT22;42641;59.794;17.616;2022-07-29T11:23:21;29.40;74.00
56771;DHT22;42641;59.794;17.616;2022-07-29T11:31:33;30.60;66.60
56771;DHT22;42641;59.794;17.616;2022-07-29T11:34:23;30.40;65.80
56771;DHT22;42641;59.794;17.616;2022-07-29T11:44:54;30.00;63.40
56771;DHT22;42641;59.794;17.616;2022-07-29T11:47:23;29.50;64.20
56771;DHT22;42641;59.794;17.616;2022-07-29T11:49:51;29.20;65.20
56771;DHT22;42641;59.794;17.616;2022-07-29T11:52:19;28.90;66.70
56771;DHT22;42641;59.794;17.616;2022-07-29T11:54:47;29.40;65.40
56771;DHT22;42641;59.794;17.616;2022-07-29T11:57:18;29.30;66.20
56771;DHT22;42641;59.794;17.616;2022-07-29T11:59:46;29.70;65.90
56771;DHT22;42641;59.794;17.616;2022-07-29T12:02:14;29.90;63.00
56771;DHT22;42641;59.794;17.616;2022-07-29T12:04:51;29.90;64.00
56771;DHT22;42641;59.794;17.616;2022-07-29T12:07:18;30.30;61.80
56771;DHT22;42641;59.794;17.616;2022-07-29T12:09:52;30.50;60.70
56771;DHT22;42641;59.794;17.616;2022-07-29T12:12:20;30.90;60.80
56771;DHT22;42641;59.794;17.616;2022-07-29T12:14:47;31.00;62.20
56771;DHT22;42641;59.794;17.616;2022-07-29T12:17:30;31.50;60.80
56771;DHT22;42641;59.794;17.616;2022-07-29T12:20:01;32.40;59.00
56771;DHT22;42641;59.794;17.616;2022-07-29T12:22:33;32.30;58.60
56771;DHT22;42641;59.794;17.616;2022-07-29T12:25:04;31.30;56.90
56771;DHT22;42641;59.794;17.616;2022-07-29T12:27:31;29.90;60.80
56771;DHT22;42641;59.794;17.616;2022-07-29T12:30:04;29.40;61.10
56771;DHT22;42641;59.794;17.616;2022-07-29T12:32:38;28.80;62.20
56771;DHT22;42641;59.794;17.616;2022-07-29T12:35:18;28.30;63.00
56771;DHT22;42641;59.794;17.616;2022-07-29T12:37:48;29.10;62.70
56771;DHT22;42641;59.794;17.616;2022-07-29T12:40:18;29.70;59.80
56771;DHT22;42641;59.794;17.616;2022-07-29T12:43:06;30.60;60.00
56771;DHT22;42641;59.794;17.616;2022-07-29T12:45:37;31.10;57.50
56771;DHT22;42641;59.794;17.616;2022-07-29T12:48:04;31.30;58.40
56771;DHT22;42641;59.794;17.616;2022-07-29T12:50:32;31.90;57.40
56771;DHT22;42641;59.794;17.616;2022-07-29T12:53:10;31.90;57.20
56771;DHT22;42641;59.794;17.616;2022-07-29T12:55:41;32.50;56.30
56771;DHT22;42641;59.794;17.616;2022-07-29T12:58:08;32.70;54.60
56771;DHT22;42641;59.794;17.616;2022-07-29T13:00:35;32.70;54.80
56771;DHT22;42641;59.794;17.616;2022-07-29T13:03:01;32.80;55.10
56771;DHT22;42641;59.794;17.616;2022-07-29T13:05:57;32.40;55.00
56771;DHT22;42641;59.794;17.616;2022-07-29T13:08:24;31.90;56.60
56771;DHT22;42641;59.794;17.616;2022-07-29T13:10:51;32.20;55.40
56771;DHT22;42641;59.794;17.616;2022-07-29T13:13:17;32.80;56.40
56771;DHT22;42641;59.794;17.616;2022-07-29T13:15:45;33.50;54.30
56771;DHT22;42641;59.794;17.616;2022-07-29T13:18:34;34.00;53.50
56771;DHT22;42641;59.794;17.616;2022-07-29T13:21:13;33.10;53.80
56771;DHT22;42641;59.794;17.616;2022-07-29T13:23:40;31.70;53.70
56771;DHT22;42641;59.794;17.616;2022-07-29T13:26:07;30.40;56.10
56771;DHT22;42641;59.794;17.616;2022-07-29T13:28:34;29.30;58.00
56771;DHT22;42641;59.794;17.616;2022-07-29T13:31:01;28.40;59.40
56771;DHT22;42641;59.794;17.616;2022-07-29T13:33:27;27.70;59.50
56771;DHT22;42641;59.794;17.616;2022-07-29T13:35:54;27.30;62.30
56771;DHT22;42641;59.794;17.616;2022-07-29T13:38:20;26.90;63.60
56771;DHT22;42641;59.794;17.616;2022-07-29T13:40:47;26.60;64.60
56771;DHT22;42641;59.794;17.616;2022-07-29T13:43:14;26.50;62.10
56771;DHT22;42641;59.794;17.616;2022-07-29T13:45:40;26.60;63.20
56771;DHT22;42641;59.794;17.616;2022-07-29T13:48:07;26.70;63.30
56771;DHT22;42641;59.794;17.616;2022-07-29T13:50:33;26.90;63.00
56771;DHT22;42641;59.794;17.616;2022-07-29T13:52:59;27.40;63.10
56771;DHT22;42641;59.794;17.616;2022-07-29T13:55:26;28.00;60.60
56771;DHT22;42641;59.794;17.616;2022-07-29T13:57:52;28.30;61.00
56771;DHT22;42641;59.794;17.616;2022-07-29T14:00:19;28.50;58.90
56771;DHT22;42641;59.794;17.616;2022-07-29T14:02:45;29.30;58.40
56771;DHT22;42641;59.794;17.616;2022-07-29T14:05:11;30.50;58.60
56771;DHT22;42641;59.794;17.616;2022-07-29T14:07:38;31.40;57.20
56771;DHT22;42641;59.794;17.616;2022-07-29T14:10:06;32.00;54.70
56771;DHT22;42641;59.794;17.616;2022-07-29T14:12:32;31.40;54.70
56771;DHT22;42641;59.794;17.616;2022-07-29T14:14:59;31.30;55.50
56771;DHT22;42641;59.794;17.616;2022-07-29T14:17:25;30.70;53.90
56771;DHT22;42641;59.794;17.616;2022-07-29T14:19:52;30.00;56.60
56771;DHT22;42641;59.794;17.616;2022-07-29T14:22:18;29.40;57.00
56771;DHT22;42641;59.794;17.616;2022-07-29T14:24:45;28.80;58.80
56771;DHT22;42641;59.794;17.616;2022-07-29T14:27:11;28.30;58.60
56771;DHT22;42641;59.794;17.616;2022-07-29T14:29:38;28.00;59.70
56771;DHT22;42641;59.794;17.616;2022-07-29T14:32:08;27.70;59.40
56771;DHT22;42641;59.794;17.616;2022-07-29T14:34:37;27.50;59.90
56771;DHT22;42641;59.794;17.616;2022-07-29T14:37:04;27.10;61.60
56771;DHT22;42641;59.794;17.616;2022-07-29T14:39:34;26.80;62.20
56771;DHT22;42641;59.794;17.616;2022-07-29T14:42:02;26.50;63.30
56771;DHT22;42641;59.794;17.616;2022-07-29T14:44:28;26.20;65.20
56771;DHT22;42641;59.794;17.616;2022-07-29T14:46:58;25.90;66.70
56771;DHT22;42641;59.794;17.616;2022-07-29T14:49:26;26.10;68.00
56771;DHT22;42641;59.794;17.616;2022-07-29T14:51:53;26.40;66.90
56771;DHT22;42641;59.794;17.616;2022-07-29T14:54:19;27.10;66.30
56771;DHT22;42641;59.794;17.616;2022-07-29T14:56:46;28.10;63.30
56771;DHT22;42641;59.794;17.616;2022-07-29T14:59:12;29.10;62.10
56771;DHT22;42641;59.794;17.616;2022-07-29T15:01:39;29.80;57.90
56771;DHT22;42641;59.794;17.616;2022-07-29T15:04:06;30.50;55.60
56771;DHT22;42641;59.794;17.616;2022-07-29T15:06:32;31.00;55.30
56771;DHT22;42641;59.794;17.616;2022-07-29T15:08:58;31.70;53.60
56771;DHT22;42641;59.794;17.616;2022-07-29T15:11:25;31.90;54.00
56771;DHT22;42641;59.794;17.616;2022-07-29T15:13:51;31.80;53.30
56771;DHT22;42641;59.794;17.616;2022-07-29T15:16:18;31.90;52.00
56771;DHT22;42641;59.794;17.616;2022-07-29T15:18:44;32.20;51.40
56771;DHT22;42641;59.794;17.616;2022-07-29T15:21:11;32.30;52.10
56771;DHT22;42641;59.794;17.616;2022-07-29T15:23:37;32.70;52.10
56771;DHT22;42641;59.794;17.616;2022-07-29T15:26:04;32.70;51.40
56771;DHT22;42641;59.794;17.616;2022-07-29T15:28:31;32.30;50.50
56771;DHT22;42641;59.794;17.616;2022-07-29T15:30:57;31.30;51.20
56771;DHT22;42641;59.794;17.616;2022-07-29T15:33:25;30.10;52.60
56771;DHT22;42641;59.794;17.616;2022-07-29T15:35:51;28.90;55.00
56771;DHT22;42641;59.794;17.616;2022-07-29T15:38:18;28.70;59.50
56771;DHT22;42641;59.794;17.616;2022-07-29T15:40:44;29.40;58.70
56771;DHT22;42641;59.794;17.616;2022-07-29T15:43:12;30.00;56.60
56771;DHT22;42641;59.794;17.616;2022-07-29T15:45:40;30.30;54.80
56771;DHT22;42641;59.794;17.616;2022-07-29T15:48:08;30.70;55.80
56771;DHT22;42641;59.794;17.616;2022-07-29T15:50:35;31.30;53.80
56771;DHT22;42641;59.794;17.616;2022-07-29T15:53:01;31.50;54.30
56771;DHT22;42641;59.794;17.616;2022-07-29T15:55:27;31.30;53.30
56771;DHT22;42641;59.794;17.616;2022-07-29T15:57:54;31.20;53.20
56771;DHT22;42641;59.794;17.616;2022-07-29T16:00:20;30.70;53.60
56771;DHT22;42641;59.794;17.616;2022-07-29T16:02:47;30.20;54.20
56771;DHT22;42641;59.794;17.616;2022-07-29T16:05:14;30.30;54.20
56771;DHT22;42641;59.794;17.616;2022-07-29T16:07:40;30.20;55.80